createdAt,value
2016-11-24T00:00:24.338Z,1013.69
2016-11-24T00:01:03.524Z,1013.68
2016-11-24T00:01:42.398Z,1013.68
2016-11-24T00:02:21.234Z,1013.7
2016-11-24T00:03:00.061Z,1013.66
2016-11-24T00:03:38.893Z,1013.74
2016-11-24T00:04:17.724Z,1013.71
2016-11-24T00:04:56.554Z,1013.71
2016-11-24T00:05:35.395Z,1013.69
2016-11-24T00:06:14.225Z,1013.7
2016-11-24T00:06:53.050Z,1013.68
2016-11-24T00:07:31.876Z,1013.66
2016-11-24T00:08:10.706Z,1013.67
2016-11-24T00:08:49.562Z,1013.67
2016-11-24T00:09:28.389Z,1013.68
2016-11-24T00:10:07.220Z,1013.72
2016-11-24T00:10:46.057Z,1013.67
2016-11-24T00:11:24.883Z,1013.7
2016-11-24T00:12:03.718Z,1013.73
2016-11-24T00:12:42.559Z,1013.74
2016-11-24T00:13:21.398Z,1013.71
2016-11-24T00:14:00.577Z,1013.73
2016-11-24T00:14:39.406Z,1013.75
2016-11-24T00:15:18.234Z,1013.75
2016-11-24T00:15:57.060Z,1013.74
2016-11-24T00:16:35.898Z,1013.76
2016-11-24T00:17:14.756Z,1013.75
2016-11-24T00:17:53.587Z,1013.76
2016-11-24T00:18:32.415Z,1013.72
2016-11-24T00:19:11.245Z,1013.7
2016-11-24T00:19:50.434Z,1013.7
2016-11-24T00:20:29.269Z,1013.71
2016-11-24T00:21:08.100Z,1013.71
2016-11-24T00:21:46.931Z,1013.68
2016-11-24T00:22:25.771Z,1013.68
2016-11-24T00:23:04.604Z,1013.69
2016-11-24T00:23:43.436Z,1013.7
2016-11-24T00:24:22.266Z,1013.72
2016-11-24T00:25:01.100Z,1013.73
2016-11-24T00:25:39.935Z,1013.75
2016-11-24T00:26:18.768Z,1013.73
2016-11-24T00:26:57.596Z,1013.74
2016-11-24T00:27:36.470Z,1013.73
2016-11-24T00:28:15.328Z,1013.74
2016-11-24T00:28:54.157Z,1013.71
2016-11-24T00:29:32.990Z,1013.67
2016-11-24T00:30:11.937Z,1013.69
2016-11-24T00:30:50.765Z,1013.67
2016-11-24T00:31:29.600Z,1013.69
2016-11-24T00:32:08.429Z,1013.66
2016-11-24T00:32:47.258Z,1013.65
2016-11-24T00:33:26.094Z,1013.67
2016-11-24T00:34:04.921Z,1013.64
2016-11-24T00:34:43.753Z,1013.61
2016-11-24T00:35:22.590Z,1013.63
2016-11-24T00:36:01.432Z,1013.62
2016-11-24T00:36:40.262Z,1013.64
2016-11-24T00:37:19.096Z,1013.64
2016-11-24T00:37:57.930Z,1013.65
2016-11-24T00:38:36.761Z,1013.64
2016-11-24T00:39:15.618Z,1013.66
2016-11-24T00:39:54.449Z,1013.69
2016-11-24T00:40:33.279Z,1013.67
2016-11-24T00:41:12.111Z,1013.65
2016-11-24T00:41:50.942Z,1013.7
2016-11-24T00:42:29.804Z,1013.72
2016-11-24T00:43:08.664Z,1013.76
2016-11-24T00:43:47.497Z,1013.72
2016-11-24T00:44:26.333Z,1013.75
2016-11-24T00:45:05.157Z,1013.74
2016-11-24T00:45:43.991Z,1013.74
2016-11-24T00:46:22.824Z,1013.74
2016-11-24T00:47:01.654Z,1013.75
2016-11-24T00:47:40.489Z,1013.74
2016-11-24T00:48:19.319Z,1013.78
2016-11-24T00:48:58.149Z,1013.73
2016-11-24T00:49:37.337Z,1013.74
2016-11-24T00:50:16.166Z,1013.77
2016-11-24T00:50:55.030Z,1013.76
2016-11-24T00:51:33.862Z,1013.79
2016-11-24T00:52:12.723Z,1013.74
2016-11-24T00:52:51.553Z,1013.78
2016-11-24T00:53:30.419Z,1013.8
2016-11-24T00:54:09.252Z,1013.8
2016-11-24T00:54:48.084Z,1013.8
2016-11-24T00:55:26.948Z,1013.81
2016-11-24T00:56:05.776Z,1013.79
2016-11-24T00:56:44.606Z,1013.81
2016-11-24T00:57:23.435Z,1013.81
2016-11-24T00:58:02.268Z,1013.87
2016-11-24T00:58:41.098Z,1013.85
2016-11-24T00:59:19.926Z,1013.84
2016-11-24T00:59:58.754Z,1013.82
2016-11-24T01:00:37.620Z,1013.82
2016-11-24T01:01:16.458Z,1013.86
2016-11-24T01:01:55.288Z,1013.82
2016-11-24T01:02:34.121Z,1013.81
2016-11-24T01:03:12.963Z,1013.83
2016-11-24T01:03:51.797Z,1013.81
2016-11-24T01:04:30.624Z,1013.78
2016-11-24T01:05:09.452Z,1013.8
2016-11-24T01:05:48.282Z,1013.82
2016-11-24T01:06:27.113Z,1013.79
2016-11-24T01:07:05.945Z,1013.8
2016-11-24T01:07:44.773Z,1013.79
2016-11-24T01:08:23.961Z,1013.79
2016-11-24T01:09:02.790Z,1013.8
2016-11-24T01:09:41.619Z,1013.8
2016-11-24T01:10:20.448Z,1013.82
2016-11-24T01:10:59.644Z,1013.82
2016-11-24T01:11:38.479Z,1013.83
2016-11-24T01:12:17.306Z,1013.82
2016-11-24T01:12:56.137Z,1013.84
2016-11-24T01:13:34.967Z,1013.81
2016-11-24T01:14:13.834Z,1013.82
2016-11-24T01:14:52.664Z,1013.82
2016-11-24T01:15:31.494Z,1013.79
2016-11-24T01:16:10.325Z,1013.83
2016-11-24T01:16:49.151Z,1013.81
2016-11-24T01:17:27.981Z,1013.81
2016-11-24T01:18:06.808Z,1013.8
2016-11-24T01:18:45.637Z,1013.85
2016-11-24T01:19:24.468Z,1013.82
2016-11-24T01:20:03.295Z,1013.85
2016-11-24T01:20:42.124Z,1013.85
2016-11-24T01:21:20.952Z,1013.89
2016-11-24T01:21:59.786Z,1013.88
2016-11-24T01:22:38.611Z,1013.87
2016-11-24T01:23:17.441Z,1013.88
2016-11-24T01:23:56.269Z,1013.88
2016-11-24T01:24:35.123Z,1013.88
2016-11-24T01:25:13.949Z,1013.87
2016-11-24T01:25:52.783Z,1013.89
2016-11-24T01:26:31.617Z,1013.86
2016-11-24T01:27:10.803Z,1013.88
2016-11-24T01:27:49.630Z,1013.91
2016-11-24T01:28:28.465Z,1013.87
2016-11-24T01:29:07.292Z,1013.89
2016-11-24T01:29:46.122Z,1013.86
2016-11-24T01:30:24.953Z,1013.86
2016-11-24T01:31:03.807Z,1013.85
2016-11-24T01:31:42.637Z,1013.85
2016-11-24T01:32:21.463Z,1013.89
2016-11-24T01:33:00.289Z,1013.86
2016-11-24T01:33:39.121Z,1013.89
2016-11-24T01:34:17.949Z,1013.88
2016-11-24T01:34:56.788Z,1013.9
2016-11-24T01:35:35.622Z,1013.86
2016-11-24T01:36:14.453Z,1013.86
2016-11-24T01:36:53.283Z,1013.86
2016-11-24T01:37:32.114Z,1013.85
2016-11-24T01:38:10.941Z,1013.83
2016-11-24T01:38:49.808Z,1013.86
2016-11-24T01:39:28.636Z,1013.87
2016-11-24T01:40:07.470Z,1013.85
2016-11-24T01:40:46.299Z,1013.85
2016-11-24T01:41:25.130Z,1013.86
2016-11-24T01:42:03.964Z,1013.86
2016-11-24T01:42:42.796Z,1013.87
2016-11-24T01:43:21.631Z,1013.85
2016-11-24T01:44:00.460Z,1013.89
2016-11-24T01:44:39.289Z,1013.91
2016-11-24T01:45:18.119Z,1013.9
2016-11-24T01:45:56.947Z,1013.89
2016-11-24T01:46:35.784Z,1013.93
2016-11-24T01:47:14.620Z,1013.95
2016-11-24T01:47:53.454Z,1013.95
2016-11-24T01:48:32.639Z,1013.96
2016-11-24T01:49:11.474Z,1013.92
2016-11-24T01:49:50.307Z,1013.94
2016-11-24T01:50:29.139Z,1013.94
2016-11-24T01:51:07.977Z,1013.98
2016-11-24T01:51:46.802Z,1013.98
2016-11-24T01:52:25.632Z,1014
2016-11-24T01:53:04.495Z,1014.02
2016-11-24T01:53:43.325Z,1014.05
2016-11-24T01:54:22.152Z,1014.02
2016-11-24T01:55:00.982Z,1014.05
2016-11-24T01:55:40.160Z,1014.06
2016-11-24T01:56:18.991Z,1014.05
2016-11-24T01:56:57.821Z,1014.04
2016-11-24T01:57:36.698Z,1014.05
2016-11-24T01:58:15.534Z,1014.09
2016-11-24T01:58:54.364Z,1014.02
2016-11-24T01:59:33.191Z,1014.05
2016-11-24T02:00:12.034Z,1014.05
2016-11-24T02:00:50.870Z,1014.03
2016-11-24T02:01:29.707Z,1014.05
2016-11-24T02:02:08.540Z,1014.06
2016-11-24T02:02:47.367Z,1014.04
2016-11-24T02:03:26.197Z,1014.04
2016-11-24T02:04:05.029Z,1014.04
2016-11-24T02:04:43.857Z,1014
2016-11-24T02:05:22.687Z,1014.02
2016-11-24T02:06:01.515Z,1013.97
2016-11-24T02:06:40.347Z,1014.01
2016-11-24T02:07:19.180Z,1013.99
2016-11-24T02:07:58.014Z,1013.97
2016-11-24T02:08:36.842Z,1014
2016-11-24T02:09:15.673Z,1014.01
2016-11-24T02:09:54.503Z,1013.97
2016-11-24T02:10:33.338Z,1013.94
2016-11-24T02:11:12.170Z,1013.92
2016-11-24T02:11:51.008Z,1013.93
2016-11-24T02:12:29.841Z,1013.97
2016-11-24T02:13:08.691Z,1013.92
2016-11-24T02:13:47.873Z,1013.9
2016-11-24T02:14:26.703Z,1013.93
2016-11-24T02:15:05.529Z,1013.97
2016-11-24T02:15:44.361Z,1013.91
2016-11-24T02:16:23.193Z,1013.95
2016-11-24T02:17:02.025Z,1013.89
2016-11-24T02:17:40.854Z,1013.9
2016-11-24T02:18:19.682Z,1013.94
2016-11-24T02:18:58.520Z,1013.92
2016-11-24T02:19:37.351Z,1013.9
2016-11-24T02:20:16.182Z,1013.9
2016-11-24T02:20:55.376Z,1013.91
2016-11-24T02:21:34.210Z,1013.88
2016-11-24T02:22:13.048Z,1013.89
2016-11-24T02:22:52.233Z,1013.86
2016-11-24T02:23:31.066Z,1013.89
2016-11-24T02:24:09.894Z,1013.89
2016-11-24T02:24:48.731Z,1013.87
2016-11-24T02:25:27.560Z,1013.91
2016-11-24T02:26:06.390Z,1013.91
2016-11-24T02:26:45.221Z,1013.88
2016-11-24T02:27:24.053Z,1013.91
2016-11-24T02:28:02.880Z,1013.84
2016-11-24T02:28:41.721Z,1013.84
2016-11-24T02:29:20.548Z,1013.84
2016-11-24T02:29:59.374Z,1013.85
2016-11-24T02:30:38.202Z,1013.83
2016-11-24T02:31:17.028Z,1013.81
2016-11-24T02:31:55.888Z,1013.84
2016-11-24T02:32:34.718Z,1013.84
2016-11-24T02:33:13.580Z,1013.87
2016-11-24T02:33:52.409Z,1013.86
2016-11-24T02:34:31.242Z,1013.84
2016-11-24T02:35:10.081Z,1013.91
2016-11-24T02:35:48.906Z,1013.95
2016-11-24T02:36:27.737Z,1013.93
2016-11-24T02:37:06.679Z,1013.99
2016-11-24T02:37:45.543Z,1013.98
2016-11-24T02:38:24.373Z,1014.02
2016-11-24T02:39:03.233Z,1013.99
2016-11-24T02:39:42.064Z,1013.99
2016-11-24T02:40:20.898Z,1013.98
2016-11-24T02:40:59.730Z,1014
2016-11-24T02:41:38.562Z,1014.02
2016-11-24T02:42:17.389Z,1013.97
2016-11-24T02:42:56.224Z,1014.02
2016-11-24T02:43:35.053Z,1014.02
2016-11-24T02:44:13.874Z,1014.01
2016-11-24T02:44:52.666Z,1014.03
2016-11-24T02:45:31.457Z,1014
2016-11-24T02:46:10.250Z,1014.02
2016-11-24T02:46:49.041Z,1014.05
2016-11-24T02:47:27.930Z,1014.05
2016-11-24T02:48:07.025Z,1014.07
2016-11-24T02:48:45.821Z,1014.06
2016-11-24T02:49:24.612Z,1014.09
2016-11-24T02:50:03.401Z,1014.06
2016-11-24T02:50:42.219Z,1014.06
2016-11-24T02:51:21.007Z,1014.07
2016-11-24T02:51:59.797Z,1014.09
2016-11-24T02:52:38.585Z,1014.1
2016-11-24T02:53:17.375Z,1014.1
2016-11-24T02:53:56.171Z,1014.11
2016-11-24T02:54:34.974Z,1014.09
2016-11-24T02:55:13.764Z,1014.14
2016-11-24T02:55:52.563Z,1014.13
2016-11-24T02:56:31.352Z,1014.16
2016-11-24T02:57:10.135Z,1014.16
2016-11-24T02:57:48.924Z,1014.16
2016-11-24T02:58:27.715Z,1014.17
2016-11-24T02:59:06.502Z,1014.16
2016-11-24T02:59:45.291Z,1014.19
2016-11-24T03:00:24.082Z,1014.2
2016-11-24T03:01:02.874Z,1014.18
2016-11-24T03:01:41.792Z,1014.19
2016-11-24T03:02:20.581Z,1014.23
2016-11-24T03:02:59.366Z,1014.19
2016-11-24T03:03:38.159Z,1014.25
2016-11-24T03:04:17.296Z,1014.24
2016-11-24T03:04:56.083Z,1014.26
2016-11-24T03:05:34.869Z,1014.29
2016-11-24T03:06:13.662Z,1014.29
2016-11-24T03:06:52.453Z,1014.33
2016-11-24T03:07:31.242Z,1014.27
2016-11-24T03:08:10.028Z,1014.31
2016-11-24T03:08:48.820Z,1014.3
2016-11-24T03:09:27.604Z,1014.33
2016-11-24T03:10:06.401Z,1014.32
2016-11-24T03:10:45.196Z,1014.35
2016-11-24T03:11:23.981Z,1014.35
2016-11-24T03:12:02.768Z,1014.34
2016-11-24T03:12:41.555Z,1014.33
2016-11-24T03:13:20.374Z,1014.32
2016-11-24T03:13:59.169Z,1014.32
2016-11-24T03:14:37.958Z,1014.36
2016-11-24T03:15:16.750Z,1014.31
2016-11-24T03:15:55.536Z,1014.33
2016-11-24T03:16:34.320Z,1014.35
2016-11-24T03:17:13.110Z,1014.33
2016-11-24T03:17:51.899Z,1014.37
2016-11-24T03:18:30.685Z,1014.35
2016-11-24T03:19:09.474Z,1014.37
2016-11-24T03:19:48.261Z,1014.32
2016-11-24T03:20:27.051Z,1014.34
2016-11-24T03:21:05.840Z,1014.34
2016-11-24T03:21:44.631Z,1014.34
2016-11-24T03:22:23.416Z,1014.33
2016-11-24T03:23:02.207Z,1014.34
2016-11-24T03:23:40.996Z,1014.34
2016-11-24T03:24:19.790Z,1014.37
2016-11-24T03:24:58.582Z,1014.38
2016-11-24T03:25:37.372Z,1014.36
2016-11-24T03:26:16.162Z,1014.38
2016-11-24T03:26:54.949Z,1014.36
2016-11-24T03:27:33.740Z,1014.36
2016-11-24T03:28:12.533Z,1014.35
2016-11-24T03:28:51.323Z,1014.32
2016-11-24T03:29:30.114Z,1014.32
2016-11-24T03:30:08.934Z,1014.33
2016-11-24T03:30:47.724Z,1014.33
2016-11-24T03:31:26.511Z,1014.36
2016-11-24T03:32:05.297Z,1014.34
2016-11-24T03:32:44.080Z,1014.33
2016-11-24T03:33:22.869Z,1014.33
2016-11-24T03:34:01.660Z,1014.32
2016-11-24T03:34:40.459Z,1014.34
2016-11-24T03:35:19.250Z,1014.35
2016-11-24T03:35:58.033Z,1014.35
2016-11-24T03:36:36.849Z,1014.41
2016-11-24T03:37:15.644Z,1014.37
2016-11-24T03:37:54.440Z,1014.43
2016-11-24T03:38:33.229Z,1014.44
2016-11-24T03:39:12.020Z,1014.43
2016-11-24T03:39:50.808Z,1014.44
2016-11-24T03:40:29.593Z,1014.46
2016-11-24T03:41:08.415Z,1014.47
2016-11-24T03:41:47.208Z,1014.45
2016-11-24T03:42:26.026Z,1014.45
2016-11-24T03:43:04.814Z,1014.45
2016-11-24T03:43:43.597Z,1014.5
2016-11-24T03:44:22.384Z,1014.48
2016-11-24T03:45:01.171Z,1014.48
2016-11-24T03:45:39.958Z,1014.49
2016-11-24T03:46:18.778Z,1014.53
2016-11-24T03:46:57.568Z,1014.53
2016-11-24T03:47:36.360Z,1014.49
2016-11-24T03:48:15.148Z,1014.56
2016-11-24T03:48:53.937Z,1014.54
2016-11-24T03:49:32.785Z,1014.54
2016-11-24T03:50:11.576Z,1014.57
2016-11-24T03:50:50.368Z,1014.54
2016-11-24T03:51:29.161Z,1014.56
2016-11-24T03:52:07.953Z,1014.57
2016-11-24T03:52:46.740Z,1014.6
2016-11-24T03:53:25.525Z,1014.59
2016-11-24T03:54:04.317Z,1014.58
2016-11-24T03:54:43.111Z,1014.58
2016-11-24T03:55:21.906Z,1014.58
2016-11-24T03:56:00.701Z,1014.57
2016-11-24T03:56:39.489Z,1014.6
2016-11-24T03:57:18.285Z,1014.59
2016-11-24T03:57:57.081Z,1014.57
2016-11-24T03:58:35.868Z,1014.61
2016-11-24T03:59:14.654Z,1014.56
2016-11-24T03:59:53.445Z,1014.58
2016-11-24T04:00:32.231Z,1014.58
2016-11-24T04:01:11.019Z,1014.59
2016-11-24T04:01:49.818Z,1014.6
2016-11-24T04:02:28.742Z,1014.65
2016-11-24T04:03:07.560Z,1014.64
2016-11-24T04:03:46.378Z,1014.61
2016-11-24T04:04:25.172Z,1014.67
2016-11-24T04:05:03.958Z,1014.61
2016-11-24T04:05:42.754Z,1014.64
2016-11-24T04:06:21.545Z,1014.64
2016-11-24T04:07:00.340Z,1014.71
2016-11-24T04:07:39.137Z,1014.68
2016-11-24T04:08:17.925Z,1014.73
2016-11-24T04:08:56.710Z,1014.69
2016-11-24T04:09:35.499Z,1014.69
2016-11-24T04:10:14.290Z,1014.76
2016-11-24T04:10:53.083Z,1014.77
2016-11-24T04:11:31.874Z,1014.74
2016-11-24T04:12:10.664Z,1014.8
2016-11-24T04:12:49.452Z,1014.8
2016-11-24T04:13:28.242Z,1014.81
2016-11-24T04:14:07.029Z,1014.79
2016-11-24T04:14:45.811Z,1014.79
2016-11-24T04:15:24.601Z,1014.83
2016-11-24T04:16:03.388Z,1014.84
2016-11-24T04:16:42.178Z,1014.85
2016-11-24T04:17:20.966Z,1014.82
2016-11-24T04:17:59.785Z,1014.83
2016-11-24T04:18:38.571Z,1014.81
2016-11-24T04:19:17.367Z,1014.8
2016-11-24T04:19:56.157Z,1014.8
2016-11-24T04:20:34.947Z,1014.78
2016-11-24T04:21:13.739Z,1014.79
2016-11-24T04:21:52.534Z,1014.74
2016-11-24T04:22:31.321Z,1014.82
2016-11-24T04:23:10.144Z,1014.82
2016-11-24T04:23:48.934Z,1014.81
2016-11-24T04:24:27.718Z,1014.82
2016-11-24T04:25:06.508Z,1014.78
2016-11-24T04:25:45.299Z,1014.73
2016-11-24T04:26:24.088Z,1014.8
2016-11-24T04:27:02.878Z,1014.76
2016-11-24T04:27:41.671Z,1014.77
2016-11-24T04:28:20.459Z,1014.8
2016-11-24T04:28:59.252Z,1014.76
2016-11-24T04:29:38.101Z,1014.82
2016-11-24T04:30:16.890Z,1014.81
2016-11-24T04:30:55.677Z,1014.75
2016-11-24T04:31:34.462Z,1014.83
2016-11-24T04:32:13.255Z,1014.83
2016-11-24T04:32:52.038Z,1014.83
2016-11-24T04:33:30.827Z,1014.82
2016-11-24T04:34:09.642Z,1014.84
2016-11-24T04:34:48.786Z,1014.82
2016-11-24T04:35:27.577Z,1014.91
2016-11-24T04:36:06.366Z,1014.89
2016-11-24T04:36:45.154Z,1014.88
2016-11-24T04:37:23.944Z,1014.87
2016-11-24T04:38:02.735Z,1014.87
2016-11-24T04:38:41.522Z,1014.81
2016-11-24T04:39:20.311Z,1014.86
2016-11-24T04:39:59.096Z,1014.89
2016-11-24T04:40:37.886Z,1014.85
2016-11-24T04:41:16.674Z,1014.83
2016-11-24T04:41:55.461Z,1014.8
2016-11-24T04:42:34.249Z,1014.84
2016-11-24T04:43:13.037Z,1014.83
2016-11-24T04:43:51.839Z,1014.79
2016-11-24T04:44:30.628Z,1014.84
2016-11-24T04:45:09.417Z,1014.86
2016-11-24T04:45:48.203Z,1014.83
2016-11-24T04:46:26.988Z,1014.82
2016-11-24T04:47:05.776Z,1014.87
2016-11-24T04:47:44.565Z,1014.83
2016-11-24T04:48:23.353Z,1014.85
2016-11-24T04:49:02.141Z,1014.87
2016-11-24T04:49:40.927Z,1014.91
2016-11-24T04:50:19.711Z,1014.86
2016-11-24T04:50:58.495Z,1014.88
2016-11-24T04:51:37.285Z,1014.9
2016-11-24T04:52:16.074Z,1014.89
2016-11-24T04:52:54.868Z,1014.89
2016-11-24T04:53:33.657Z,1014.91
2016-11-24T04:54:12.442Z,1014.89
2016-11-24T04:54:51.230Z,1014.92
2016-11-24T04:55:30.026Z,1014.92
2016-11-24T04:56:08.817Z,1014.92
2016-11-24T04:56:47.614Z,1014.92
2016-11-24T04:57:26.429Z,1014.97
2016-11-24T04:58:05.222Z,1014.92
2016-11-24T04:58:44.013Z,1014.94
2016-11-24T04:59:22.802Z,1014.93
2016-11-24T05:00:01.594Z,1014.91
2016-11-24T05:00:40.380Z,1014.93
2016-11-24T05:01:19.170Z,1014.94
2016-11-24T05:01:57.959Z,1014.9
2016-11-24T05:02:36.749Z,1014.92
2016-11-24T05:03:15.541Z,1014.91
2016-11-24T05:03:54.326Z,1014.93
2016-11-24T05:04:33.119Z,1014.94
2016-11-24T05:05:11.904Z,1014.94
2016-11-24T05:05:50.690Z,1014.95
2016-11-24T05:06:29.478Z,1014.94
2016-11-24T05:07:08.265Z,1014.94
2016-11-24T05:07:47.054Z,1015
2016-11-24T05:08:25.840Z,1014.98
2016-11-24T05:09:04.628Z,1014.95
2016-11-24T05:09:43.416Z,1014.93
2016-11-24T05:10:22.213Z,1014.93
2016-11-24T05:11:01.000Z,1015
2016-11-24T05:11:39.792Z,1014.96
2016-11-24T05:12:18.611Z,1014.95
2016-11-24T05:12:57.399Z,1014.96
2016-11-24T05:13:36.201Z,1014.97
2016-11-24T05:14:14.995Z,1014.96
2016-11-24T05:14:53.788Z,1014.93
2016-11-24T05:15:32.578Z,1014.97
2016-11-24T05:16:11.363Z,1014.95
2016-11-24T05:16:50.158Z,1014.95
2016-11-24T05:17:28.945Z,1014.97
2016-11-24T05:18:07.734Z,1014.99
2016-11-24T05:18:46.540Z,1015.03
2016-11-24T05:19:25.365Z,1014.98
2016-11-24T05:20:04.189Z,1014.98
2016-11-24T05:20:42.979Z,1014.98
2016-11-24T05:21:21.768Z,1014.97
2016-11-24T05:22:00.556Z,1015.01
2016-11-24T05:22:39.343Z,1015.01
2016-11-24T05:23:18.129Z,1014.99
2016-11-24T05:23:56.915Z,1014.99
2016-11-24T05:24:35.763Z,1014.97
2016-11-24T05:25:14.547Z,1014.99
2016-11-24T05:25:53.334Z,1015.02
2016-11-24T05:26:32.129Z,1015.03
2016-11-24T05:27:10.916Z,1015.04
2016-11-24T05:27:49.704Z,1015.02
2016-11-24T05:28:28.491Z,1015.04
2016-11-24T05:29:07.279Z,1015.04
2016-11-24T05:29:46.069Z,1015.02
2016-11-24T05:30:24.866Z,1015.02
2016-11-24T05:31:03.663Z,1015.01
2016-11-24T05:31:42.453Z,1015.01
2016-11-24T05:32:21.247Z,1015.02
2016-11-24T05:33:00.389Z,1015.06
2016-11-24T05:33:39.181Z,1015.07
2016-11-24T05:34:17.994Z,1015.04
2016-11-24T05:34:56.783Z,1015.01
2016-11-24T05:35:35.572Z,1015.07
2016-11-24T05:36:14.370Z,1015.11
2016-11-24T05:36:53.152Z,1015.07
2016-11-24T05:37:31.937Z,1015.11
2016-11-24T05:38:10.723Z,1015.11
2016-11-24T05:38:49.511Z,1015.06
2016-11-24T05:39:28.302Z,1015.11
2016-11-24T05:40:07.095Z,1015.13
2016-11-24T05:40:45.880Z,1015.12
2016-11-24T05:41:24.668Z,1015.13
2016-11-24T05:42:03.460Z,1015.12
2016-11-24T05:42:42.250Z,1015.15
2016-11-24T05:43:21.038Z,1015.14
2016-11-24T05:43:59.828Z,1015.16
2016-11-24T05:44:38.622Z,1015.13
2016-11-24T05:45:17.412Z,1015.13
2016-11-24T05:45:56.225Z,1015.15
2016-11-24T05:46:35.015Z,1015.16
2016-11-24T05:47:13.809Z,1015.17
2016-11-24T05:47:52.593Z,1015.16
2016-11-24T05:48:31.414Z,1015.14
2016-11-24T05:49:10.204Z,1015.15
2016-11-24T05:49:48.986Z,1015.15
2016-11-24T05:50:27.775Z,1015.11
2016-11-24T05:51:06.564Z,1015.11
2016-11-24T05:51:45.359Z,1015.11
2016-11-24T05:52:24.147Z,1015.16
2016-11-24T05:53:02.936Z,1015.09
2016-11-24T05:53:42.075Z,1015.12
2016-11-24T05:54:20.866Z,1015.05
2016-11-24T05:54:59.652Z,1015.09
2016-11-24T05:55:38.446Z,1015.16
2016-11-24T05:56:17.237Z,1015.12
2016-11-24T05:56:56.029Z,1015.05
2016-11-24T05:57:34.816Z,1015.1
2016-11-24T05:58:13.604Z,1015.11
2016-11-24T05:58:52.394Z,1015.09
2016-11-24T05:59:31.180Z,1015.13
2016-11-24T06:00:09.976Z,1015.01
2016-11-24T06:00:48.765Z,1015.08
2016-11-24T06:01:27.555Z,1015.04
2016-11-24T06:02:06.357Z,1015.06
2016-11-24T06:02:45.146Z,1015.06
2016-11-24T06:03:23.933Z,1015.03
2016-11-24T06:04:02.717Z,1015.05
2016-11-24T06:04:41.503Z,1015.09
2016-11-24T06:05:20.288Z,1015.08
2016-11-24T06:05:59.075Z,1015.07
2016-11-24T06:06:37.866Z,1015.1
2016-11-24T06:07:16.662Z,1015.15
2016-11-24T06:07:55.448Z,1015.16
2016-11-24T06:08:34.244Z,1015.13
2016-11-24T06:09:13.033Z,1015.13
2016-11-24T06:09:51.817Z,1015.12
2016-11-24T06:10:30.954Z,1015.12
2016-11-24T06:11:09.747Z,1015.11
2016-11-24T06:11:48.534Z,1015.15
2016-11-24T06:12:27.327Z,1015.14
2016-11-24T06:13:06.115Z,1015.15
2016-11-24T06:13:44.903Z,1015.1
2016-11-24T06:14:23.688Z,1015.12
2016-11-24T06:15:02.477Z,1015.11
2016-11-24T06:15:41.271Z,1015.1
2016-11-24T06:16:20.086Z,1015.1
2016-11-24T06:16:58.874Z,1015.11
2016-11-24T06:17:37.661Z,1015.11
2016-11-24T06:18:16.451Z,1015.1
2016-11-24T06:18:55.237Z,1015.08
2016-11-24T06:19:34.024Z,1015.13
2016-11-24T06:20:12.813Z,1015.13
2016-11-24T06:20:51.598Z,1015.12
2016-11-24T06:21:30.387Z,1015.12
2016-11-24T06:22:09.172Z,1015.2
2016-11-24T06:22:47.962Z,1015.21
2016-11-24T06:23:26.752Z,1015.19
2016-11-24T06:24:05.548Z,1015.21
2016-11-24T06:24:44.343Z,1015.24
2016-11-24T06:25:23.134Z,1015.21
2016-11-24T06:26:01.921Z,1015.23
2016-11-24T06:26:40.737Z,1015.23
2016-11-24T06:27:19.555Z,1015.23
2016-11-24T06:27:58.369Z,1015.27
2016-11-24T06:28:37.157Z,1015.28
2016-11-24T06:29:15.942Z,1015.28
2016-11-24T06:29:54.729Z,1015.29
2016-11-24T06:30:33.513Z,1015.29
2016-11-24T06:31:12.305Z,1015.31
2016-11-24T06:31:51.094Z,1015.34
2016-11-24T06:32:29.879Z,1015.3
2016-11-24T06:33:08.668Z,1015.31
2016-11-24T06:33:47.458Z,1015.34
2016-11-24T06:34:26.250Z,1015.31
2016-11-24T06:35:05.040Z,1015.29
2016-11-24T06:35:43.824Z,1015.25
2016-11-24T06:36:22.615Z,1015.23
2016-11-24T06:37:01.400Z,1015.28
2016-11-24T06:37:40.223Z,1015.2
2016-11-24T06:38:19.008Z,1015.22
2016-11-24T06:38:57.797Z,1015.23
2016-11-24T06:39:36.586Z,1015.27
2016-11-24T06:40:15.405Z,1015.17
2016-11-24T06:40:54.194Z,1015.21
2016-11-24T06:41:32.979Z,1015.19
2016-11-24T06:42:11.770Z,1015.22
2016-11-24T06:42:50.563Z,1015.2
2016-11-24T06:43:29.355Z,1015.18
2016-11-24T06:44:08.141Z,1015.21
2016-11-24T06:44:46.929Z,1015.24
2016-11-24T06:45:25.718Z,1015.26
2016-11-24T06:46:04.514Z,1015.24
2016-11-24T06:46:43.302Z,1015.24
2016-11-24T06:47:22.117Z,1015.31
2016-11-24T06:48:00.902Z,1015.33
2016-11-24T06:48:39.689Z,1015.33
2016-11-24T06:49:18.832Z,1015.32
2016-11-24T06:49:57.646Z,1015.38
2016-11-24T06:50:36.433Z,1015.36
2016-11-24T06:51:15.227Z,1015.38
2016-11-24T06:51:54.013Z,1015.38
2016-11-24T06:52:32.809Z,1015.42
2016-11-24T06:53:11.629Z,1015.4
2016-11-24T06:53:50.421Z,1015.36
2016-11-24T06:54:29.210Z,1015.43
2016-11-24T06:55:08.031Z,1015.41
2016-11-24T06:55:46.826Z,1015.37
2016-11-24T06:56:25.622Z,1015.46
2016-11-24T06:57:04.414Z,1015.48
2016-11-24T06:57:43.199Z,1015.49
2016-11-24T06:58:21.987Z,1015.48
2016-11-24T06:59:00.775Z,1015.49
2016-11-24T06:59:39.571Z,1015.49
2016-11-24T07:00:18.362Z,1015.47
2016-11-24T07:00:57.152Z,1015.47
2016-11-24T07:01:35.951Z,1015.48
2016-11-24T07:02:14.744Z,1015.52
2016-11-24T07:02:53.531Z,1015.49
2016-11-24T07:03:32.321Z,1015.52
2016-11-24T07:04:11.109Z,1015.55
2016-11-24T07:04:49.897Z,1015.51
2016-11-24T07:05:28.694Z,1015.52
2016-11-24T07:06:07.482Z,1015.53
2016-11-24T07:06:46.298Z,1015.55
2016-11-24T07:07:25.091Z,1015.58
2016-11-24T07:08:03.879Z,1015.56
2016-11-24T07:08:42.704Z,1015.58
2016-11-24T07:09:21.492Z,1015.57
2016-11-24T07:10:00.282Z,1015.58
2016-11-24T07:10:39.078Z,1015.62
2016-11-24T07:11:17.869Z,1015.58
2016-11-24T07:11:56.663Z,1015.6
2016-11-24T07:12:35.456Z,1015.6
2016-11-24T07:13:14.349Z,1015.63
2016-11-24T07:13:53.137Z,1015.61
2016-11-24T07:14:31.936Z,1015.64
2016-11-24T07:15:10.726Z,1015.64
2016-11-24T07:15:49.514Z,1015.65
2016-11-24T07:16:28.299Z,1015.64
2016-11-24T07:17:07.092Z,1015.66
2016-11-24T07:17:45.881Z,1015.67
2016-11-24T07:18:24.679Z,1015.64
2016-11-24T07:19:03.469Z,1015.68
2016-11-24T07:19:42.255Z,1015.7
2016-11-24T07:20:21.048Z,1015.73
2016-11-24T07:20:59.840Z,1015.77
2016-11-24T07:21:38.631Z,1015.78
2016-11-24T07:22:17.417Z,1015.79
2016-11-24T07:22:56.205Z,1015.82
2016-11-24T07:23:34.994Z,1015.82
2016-11-24T07:24:13.786Z,1015.8
2016-11-24T07:24:52.571Z,1015.85
2016-11-24T07:25:31.393Z,1015.85
2016-11-24T07:26:10.183Z,1015.89
2016-11-24T07:26:48.975Z,1015.89
2016-11-24T07:27:27.766Z,1015.9
2016-11-24T07:28:06.553Z,1015.87
2016-11-24T07:28:45.338Z,1015.87
2016-11-24T07:29:24.127Z,1015.87
2016-11-24T07:30:02.914Z,1015.9
2016-11-24T07:30:41.794Z,1015.89
2016-11-24T07:31:20.605Z,1015.91
2016-11-24T07:31:59.396Z,1015.92
2016-11-24T07:32:38.214Z,1015.98
2016-11-24T07:33:17.005Z,1015.98
2016-11-24T07:33:55.791Z,1015.93
2016-11-24T07:34:34.932Z,1015.9
2016-11-24T07:35:13.734Z,1015.94
2016-11-24T07:35:52.519Z,1015.93
2016-11-24T07:36:31.306Z,1015.91
2016-11-24T07:37:10.126Z,1015.93
2016-11-24T07:37:48.920Z,1015.93
2016-11-24T07:38:27.706Z,1015.95
2016-11-24T07:39:06.501Z,1015.96
2016-11-24T07:39:45.352Z,1015.95
2016-11-24T07:40:24.143Z,1015.9
2016-11-24T07:41:02.959Z,1015.96
2016-11-24T07:41:41.746Z,1015.98
2016-11-24T07:42:20.562Z,1015.97
2016-11-24T07:42:59.350Z,1015.93
2016-11-24T07:43:38.140Z,1015.93
2016-11-24T07:44:16.929Z,1015.92
2016-11-24T07:44:55.713Z,1015.92
2016-11-24T07:45:34.861Z,1015.91
2016-11-24T07:46:13.654Z,1015.96
2016-11-24T07:46:52.468Z,1015.94
2016-11-24T07:47:31.260Z,1015.96
2016-11-24T07:48:10.047Z,1015.94
2016-11-24T07:48:48.832Z,1015.96
2016-11-24T07:49:27.728Z,1015.98
2016-11-24T07:50:06.515Z,1015.91
2016-11-24T07:50:45.304Z,1015.97
2016-11-24T07:51:24.090Z,1015.98